sensor_id;sensor_type;location;lat;lon;timestamp;P1;durP1;ratioP1;P2;durP2;ratioP2
10467;SDS011;5281;48.878;9.394;2022-12-05T00:02:07;23.50;;;14.03;;
10467;SDS011;5281;48.878;9.394;2022-12-05T00:04:34;23.50;;;14.13;;
10467;SDS011;5281;48.878;9.394;2022-12-05T00:07:01;19.30;;;12.80;;
10467;SDS011;5281;48.878;9.394;2022-12-05T00:09:28;18.30;;;11.93;;
10467;SDS011;5281;48.878;9.394;2022-12-05T00:11:55;19.60;;;12.20;;
10467;SDS011;5281;48.878;9.394;2022-12-05T00:14:21;19.17;;;11.70;;
10467;SDS011;5281;48.878;9.394;2022-12-05T00:16:48;19.50;;;13.03;;
10467;SDS011;5281;48.878;9.394;2022-12-05T00:19:16;17.20;;;12.10;;
10467;SDS011;5281;48.878;9.394;2022-12-05T00:21:43;18.03;;;11.67;;
10467;SDS011;5281;48.878;9.394;2022-12-05T00:24:11;18.77;;;11.57;;
10467;SDS011;5281;48.878;9.394;2022-12-05T00:26:39;18.03;;;11.23;;
10467;SDS011;5281;48.878;9.394;2022-12-05T00:29:06;18.17;;;11.10;;
10467;SDS011;5281;48.878;9.394;2022-12-05T00:31:33;17.27;;;11.20;;
10467;SDS011;5281;48.878;9.394;2022-12-05T00:34:00;17.67;;;10.93;;
10467;SDS011;5281;48.878;9.394;2022-12-05T00:36:30;19.93;;;11.43;;
10467;SDS011;5281;48.878;9.394;2022-12-05T00:38:59;17.33;;;10.77;;
10467;SDS011;5281;48.878;9.394;2022-12-05T00:41:27;16.13;;;10.60;;
10467;SDS011;5281;48.878;9.394;2022-12-05T00:43:54;17.17;;;10.80;;
10467;SDS011;5281;48.878;9.394;2022-12-05T00:46:23;16.23;;;10.50;;
10467;SDS011;5281;48.878;9.394;2022-12-05T00:48:51;19.80;;;11.70;;
10467;SDS011;5281;48.878;9.394;2022-12-05T00:51:19;19.47;;;11.23;;
10467;SDS011;5281;48.878;9.394;2022-12-05T00:53:49;17.97;;;11.53;;
10467;SDS011;5281;48.878;9.394;2022-12-05T00:56:16;17.73;;;10.80;;
10467;SDS011;5281;48.878;9.394;2022-12-05T00:58:44;17.37;;;10.93;;
10467;SDS011;5281;48.878;9.394;2022-12-05T01:01:12;17.63;;;10.37;;
10467;SDS011;5281;48.878;9.394;2022-12-05T01:03:40;16.10;;;10.50;;
10467;SDS011;5281;48.878;9.394;2022-12-05T01:06:08;17.17;;;10.90;;
10467;SDS011;5281;48.878;9.394;2022-12-05T01:08:35;18.97;;;11.20;;
10467;SDS011;5281;48.878;9.394;2022-12-05T01:11:04;18.43;;;10.93;;
10467;SDS011;5281;48.878;9.394;2022-12-05T01:13:32;16.27;;;10.43;;
10467;SDS011;5281;48.878;9.394;2022-12-05T01:15:59;17.90;;;11.00;;
10467;SDS011;5281;48.878;9.394;2022-12-05T01:18:27;17.77;;;10.63;;
10467;SDS011;5281;48.878;9.394;2022-12-05T01:20:54;16.93;;;10.30;;
10467;SDS011;5281;48.878;9.394;2022-12-05T01:23:21;16.57;;;10.37;;
10467;SDS011;5281;48.878;9.394;2022-12-05T01:25:49;16.37;;;11.20;;
10467;SDS011;5281;48.878;9.394;2022-12-05T01:28:18;17.00;;;10.87;;
10467;SDS011;5281;48.878;9.394;2022-12-05T01:30:46;16.60;;;11.17;;
10467;SDS011;5281;48.878;9.394;2022-12-05T01:33:14;17.53;;;10.60;;
10467;SDS011;5281;48.878;9.394;2022-12-05T01:35:42;14.97;;;10.10;;
10467;SDS011;5281;48.878;9.394;2022-12-05T01:38:09;16.83;;;10.70;;
10467;SDS011;5281;48.878;9.394;2022-12-05T01:40:38;17.47;;;10.73;;
10467;SDS011;5281;48.878;9.394;2022-12-05T01:43:05;15.63;;;10.37;;
10467;SDS011;5281;48.878;9.394;2022-12-05T01:45:41;15.47;;;10.13;;
10467;SDS011;5281;48.878;9.394;2022-12-05T01:48:10;15.03;;;10.27;;
10467;SDS011;5281;48.878;9.394;2022-12-05T01:50:41;15.50;;;10.57;;
10467;SDS011;5281;48.878;9.394;2022-12-05T01:53:09;15.50;;;9.87;;
10467;SDS011;5281;48.878;9.394;2022-12-05T01:55:36;15.20;;;10.23;;
10467;SDS011;5281;48.878;9.394;2022-12-05T01:58:04;15.17;;;9.70;;
10467;SDS011;5281;48.878;9.394;2022-12-05T02:00:33;15.10;;;10.27;;
10467;SDS011;5281;48.878;9.394;2022-12-05T02:03:03;14.10;;;9.33;;
10467;SDS011;5281;48.878;9.394;2022-12-05T02:05:33;14.20;;;9.70;;
10467;SDS011;5281;48.878;9.394;2022-12-05T02:08:04;14.20;;;9.80;;
10467;SDS011;5281;48.878;9.394;2022-12-05T02:10:33;17.23;;;10.67;;
10467;SDS011;5281;48.878;9.394;2022-12-05T02:13:04;13.63;;;9.63;;
10467;SDS011;5281;48.878;9.394;2022-12-05T02:15:42;15.00;;;9.73;;
10467;SDS011;5281;48.878;9.394;2022-12-05T02:18:20;14.17;;;9.53;;
10467;SDS011;5281;48.878;9.394;2022-12-05T02:21:02;13.37;;;9.57;;
10467;SDS011;5281;48.878;9.394;2022-12-05T02:23:49;13.73;;;9.47;;
10467;SDS011;5281;48.878;9.394;2022-12-05T02:26:35;15.20;;;9.70;;
10467;SDS011;5281;48.878;9.394;2022-12-05T02:29:25;13.43;;;9.50;;
10467;SDS011;5281;48.878;9.394;2022-12-05T02:32:18;14.77;;;9.77;;
10467;SDS011;5281;48.878;9.394;2022-12-05T02:34:56;13.17;;;9.40;;
10467;SDS011;5281;48.878;9.394;2022-12-05T02:37:30;12.70;;;9.07;;
10467;SDS011;5281;48.878;9.394;2022-12-05T02:40:04;14.83;;;9.97;;
10467;SDS011;5281;48.878;9.394;2022-12-05T02:42:40;14.20;;;9.37;;
10467;SDS011;5281;48.878;9.394;2022-12-05T02:45:11;12.57;;;8.90;;
10467;SDS011;5281;48.878;9.394;2022-12-05T02:47:43;14.40;;;10.20;;
10467;SDS011;5281;48.878;9.394;2022-12-05T02:50:14;15.17;;;10.00;;
10467;SDS011;5281;48.878;9.394;2022-12-05T02:52:45;13.53;;;9.07;;
10467;SDS011;5281;48.878;9.394;2022-12-05T02:55:14;13.07;;;9.17;;
10467;SDS011;5281;48.878;9.394;2022-12-05T02:57:44;11.70;;;8.60;;
10467;SDS011;5281;48.878;9.394;2022-12-05T03:00:15;11.90;;;8.60;;
10467;SDS011;5281;48.878;9.394;2022-12-05T03:02:44;13.40;;;8.93;;
10467;SDS011;5281;48.878;9.394;2022-12-05T03:05:14;12.27;;;8.77;;
10467;SDS011;5281;48.878;9.394;2022-12-05T03:07:46;11.93;;;8.77;;
10467;SDS011;5281;48.878;9.394;2022-12-05T03:10:15;11.70;;;8.70;;
10467;SDS011;5281;48.878;9.394;2022-12-05T03:12:47;11.77;;;8.10;;
10467;SDS011;5281;48.878;9.394;2022-12-05T03:15:20;12.33;;;7.77;;
10467;SDS011;5281;48.878;9.394;2022-12-05T03:17:52;13.00;;;9.00;;
10467;SDS011;5281;48.878;9.394;2022-12-05T03:20:24;12.87;;;8.80;;
10467;SDS011;5281;48.878;9.394;2022-12-05T03:22:55;12.53;;;8.17;;
10467;SDS011;5281;48.878;9.394;2022-12-05T03:25:25;12.70;;;8.80;;
10467;SDS011;5281;48.878;9.394;2022-12-05T03:28:01;12.00;;;8.43;;
10467;SDS011;5281;48.878;9.394;2022-12-05T03:30:34;11.63;;;8.20;;
10467;SDS011;5281;48.878;9.394;2022-12-05T03:33:06;12.47;;;8.27;;
10467;SDS011;5281;48.878;9.394;2022-12-05T03:35:39;13.30;;;8.87;;
10467;SDS011;5281;48.878;9.394;2022-12-05T03:38:11;12.70;;;8.50;;
10467;SDS011;5281;48.878;9.394;2022-12-05T03:40:41;15.57;;;9.57;;
10467;SDS011;5281;48.878;9.394;2022-12-05T03:43:13;14.70;;;9.40;;
10467;SDS011;5281;48.878;9.394;2022-12-05T03:45:48;12.80;;;9.03;;
10467;SDS011;5281;48.878;9.394;2022-12-05T03:48:21;12.93;;;8.47;;
10467;SDS011;5281;48.878;9.394;2022-12-05T03:50:55;12.07;;;8.37;;
10467;SDS011;5281;48.878;9.394;2022-12-05T03:53:24;13.37;;;8.27;;
10467;SDS011;5281;48.878;9.394;2022-12-05T03:55:56;12.50;;;7.97;;
10467;SDS011;5281;48.878;9.394;2022-12-05T03:58:26;11.40;;;7.97;;
10467;SDS011;5281;48.878;9.394;2022-12-05T04:00:55;12.47;;;8.03;;
10467;SDS011;5281;48.878;9.394;2022-12-05T04:03:28;11.63;;;8.60;;
10467;SDS011;5281;48.878;9.394;2022-12-05T04:06:04;11.10;;;7.60;;
10467;SDS011;5281;48.878;9.394;2022-12-05T04:08:36;13.50;;;8.80;;
10467;SDS011;5281;48.878;9.394;2022-12-05T04:11:06;12.90;;;8.93;;
10467;SDS011;5281;48.878;9.394;2022-12-05T04:13:39;14.00;;;8.30;;
10467;SDS011;5281;48.878;9.394;2022-12-05T04:16:10;13.93;;;8.90;;
10467;SDS011;5281;48.878;9.394;2022-12-05T04:19:03;13.63;;;8.27;;
10467;SDS011;5281;48.878;9.394;2022-12-05T04:21:34;13.30;;;8.90;;
10467;SDS011;5281;48.878;9.394;2022-12-05T04:24:05;13.17;;;8.87;;
10467;SDS011;5281;48.878;9.394;2022-12-05T04:26:55;13.60;;;8.97;;
10467;SDS011;5281;48.878;9.394;2022-12-05T04:29:32;13.07;;;9.17;;
10467;SDS011;5281;48.878;9.394;2022-12-05T04:32:03;15.33;;;10.17;;
10467;SDS011;5281;48.878;9.394;2022-12-05T04:34:37;17.53;;;12.00;;
10467;SDS011;5281;48.878;9.394;2022-12-05T04:37:05;11.37;;;8.00;;
10467;SDS011;5281;48.878;9.394;2022-12-05T04:39:39;13.77;;;9.00;;
10467;SDS011;5281;48.878;9.394;2022-12-05T04:42:11;11.10;;;8.10;;
10467;SDS011;5281;48.878;9.394;2022-12-05T04:44:43;15.70;;;8.47;;
10467;SDS011;5281;48.878;9.394;2022-12-05T04:47:13;14.10;;;8.80;;
10467;SDS011;5281;48.878;9.394;2022-12-05T04:49:45;13.30;;;9.10;;
10467;SDS011;5281;48.878;9.394;2022-12-05T04:52:12;12.07;;;8.73;;
10467;SDS011;5281;48.878;9.394;2022-12-05T04:54:41;13.07;;;8.93;;
10467;SDS011;5281;48.878;9.394;2022-12-05T04:57:13;15.93;;;9.93;;
10467;SDS011;5281;48.878;9.394;2022-12-05T04:59:44;25.47;;;15.57;;
10467;SDS011;5281;48.878;9.394;2022-12-05T05:02:12;15.87;;;10.20;;
10467;SDS011;5281;48.878;9.394;2022-12-05T05:04:43;14.53;;;9.43;;
10467;SDS011;5281;48.878;9.394;2022-12-05T05:07:15;11.80;;;8.27;;
10467;SDS011;5281;48.878;9.394;2022-12-05T05:09:43;12.00;;;8.73;;
10467;SDS011;5281;48.878;9.394;2022-12-05T05:12:11;16.10;;;9.60;;
10467;SDS011;5281;48.878;9.394;2022-12-05T05:14:37;11.63;;;8.30;;
10467;SDS011;5281;48.878;9.394;2022-12-05T05:17:04;14.83;;;9.07;;
10467;SDS011;5281;48.878;9.394;2022-12-05T05:19:31;15.30;;;8.67;;
10467;SDS011;5281;48.878;9.394;2022-12-05T05:22:00;14.50;;;8.90;;
10467;SDS011;5281;48.878;9.394;2022-12-05T05:24:26;13.23;;;8.77;;
10467;SDS011;5281;48.878;9.394;2022-12-05T05:26:53;11.90;;;8.60;;
10467;SDS011;5281;48.878;9.394;2022-12-05T05:29:20;16.30;;;9.37;;
10467;SDS011;5281;48.878;9.394;2022-12-05T05:31:47;14.60;;;9.43;;
10467;SDS011;5281;48.878;9.394;2022-12-05T05:34:14;14.03;;;9.43;;
10467;SDS011;5281;48.878;9.394;2022-12-05T05:36:41;12.60;;;9.13;;
10467;SDS011;5281;48.878;9.394;2022-12-05T05:39:11;12.10;;;8.77;;
10467;SDS011;5281;48.878;9.394;2022-12-05T05:41:41;14.70;;;9.73;;
10467;SDS011;5281;48.878;9.394;2022-12-05T05:44:08;12.87;;;8.93;;
10467;SDS011;5281;48.878;9.394;2022-12-05T05:46:36;18.70;;;10.93;;
10467;SDS011;5281;48.878;9.394;2022-12-05T05:49:03;20.03;;;12.13;;
10467;SDS011;5281;48.878;9.394;2022-12-05T05:51:30;20.33;;;14.03;;
10467;SDS011;5281;48.878;9.394;2022-12-05T05:53:57;25.43;;;16.27;;
10467;SDS011;5281;48.878;9.394;2022-12-05T05:56:27;16.53;;;11.00;;
10467;SDS011;5281;48.878;9.394;2022-12-05T05:58:54;13.90;;;9.37;;
10467;SDS011;5281;48.878;9.394;2022-12-05T06:01:22;14.10;;;9.27;;
10467;SDS011;5281;48.878;9.394;2022-12-05T06:03:49;15.97;;;10.87;;
10467;SDS011;5281;48.878;9.394;2022-12-05T06:06:17;23.47;;;14.83;;
10467;SDS011;5281;48.878;9.394;2022-12-05T06:08:45;16.33;;;10.60;;
10467;SDS011;5281;48.878;9.394;2022-12-05T06:11:13;15.47;;;9.83;;
10467;SDS011;5281;48.878;9.394;2022-12-05T06:13:42;15.93;;;10.67;;
10467;SDS011;5281;48.878;9.394;2022-12-05T06:16:10;15.00;;;10.57;;
10467;SDS011;5281;48.878;9.394;2022-12-05T06:18:38;15.50;;;9.77;;
10467;SDS011;5281;48.878;9.394;2022-12-05T06:21:06;10.83;;;8.10;;
10467;SDS011;5281;48.878;9.394;2022-12-05T06:23:33;12.27;;;8.93;;
10467;SDS011;5281;48.878;9.394;2022-12-05T06:26:00;14.20;;;9.87;;
10467;SDS011;5281;48.878;9.394;2022-12-05T06:28:28;13.60;;;9.73;;
10467;SDS011;5281;48.878;9.394;2022-12-05T06:30:57;15.40;;;10.03;;
10467;SDS011;5281;48.878;9.394;2022-12-05T06:33:24;14.93;;;9.17;;
10467;SDS011;5281;48.878;9.394;2022-12-05T06:36:00;13.83;;;9.43;;
10467;SDS011;5281;48.878;9.394;2022-12-05T06:38:28;13.60;;;8.90;;
10467;SDS011;5281;48.878;9.394;2022-12-05T06:40:55;14.73;;;9.23;;
10467;SDS011;5281;48.878;9.394;2022-12-05T06:43:22;14.47;;;9.47;;
10467;SDS011;5281;48.878;9.394;2022-12-05T06:45:49;13.30;;;9.20;;
10467;SDS011;5281;48.878;9.394;2022-12-05T06:48:17;14.97;;;9.20;;
10467;SDS011;5281;48.878;9.394;2022-12-05T06:50:47;12.33;;;8.93;;
10467;SDS011;5281;48.878;9.394;2022-12-05T06:53:15;17.27;;;11.03;;
10467;SDS011;5281;48.878;9.394;2022-12-05T06:55:42;14.37;;;9.73;;
10467;SDS011;5281;48.878;9.394;2022-12-05T06:58:09;14.20;;;9.63;;
10467;SDS011;5281;48.878;9.394;2022-12-05T07:00:36;13.60;;;9.67;;
10467;SDS011;5281;48.878;9.394;2022-12-05T07:03:22;17.93;;;12.13;;
10467;SDS011;5281;48.878;9.394;2022-12-05T07:05:49;14.90;;;10.83;;
10467;SDS011;5281;48.878;9.394;2022-12-05T07:08:16;16.53;;;9.47;;
10467;SDS011;5281;48.878;9.394;2022-12-05T07:10:49;17.87;;;11.90;;
10467;SDS011;5281;48.878;9.394;2022-12-05T07:13:17;13.17;;;9.00;;
10467;SDS011;5281;48.878;9.394;2022-12-05T07:15:45;15.63;;;8.70;;
10467;SDS011;5281;48.878;9.394;2022-12-05T07:18:13;15.40;;;9.77;;
10467;SDS011;5281;48.878;9.394;2022-12-05T07:20:42;13.77;;;9.53;;
10467;SDS011;5281;48.878;9.394;2022-12-05T07:23:10;17.17;;;9.53;;
10467;SDS011;5281;48.878;9.394;2022-12-05T07:25:38;15.07;;;9.50;;
10467;SDS011;5281;48.878;9.394;2022-12-05T07:28:05;12.27;;;8.60;;
10467;SDS011;5281;48.878;9.394;2022-12-05T07:30:33;16.33;;;9.20;;
10467;SDS011;5281;48.878;9.394;2022-12-05T07:33:00;13.00;;;9.00;;
10467;SDS011;5281;48.878;9.394;2022-12-05T07:35:28;13.30;;;8.47;;
10467;SDS011;5281;48.878;9.394;2022-12-05T07:37:57;14.93;;;9.47;;
10467;SDS011;5281;48.878;9.394;2022-12-05T07:40:24;11.73;;;8.43;;
10467;SDS011;5281;48.878;9.394;2022-12-05T07:42:51;11.23;;;8.00;;
10467;SDS011;5281;48.878;9.394;2022-12-05T07:45:18;13.20;;;8.17;;
10467;SDS011;5281;48.878;9.394;2022-12-05T07:47:45;14.23;;;9.57;;
10467;SDS011;5281;48.878;9.394;2022-12-05T07:50:12;11.73;;;8.23;;
10467;SDS011;5281;48.878;9.394;2022-12-05T07:52:40;14.27;;;9.07;;
10467;SDS011;5281;48.878;9.394;2022-12-05T07:55:08;12.50;;;8.90;;
10467;SDS011;5281;48.878;9.394;2022-12-05T07:57:35;14.40;;;8.97;;
10467;SDS011;5281;48.878;9.394;2022-12-05T08:00:02;12.90;;;9.00;;
10467;SDS011;5281;48.878;9.394;2022-12-05T08:02:30;13.93;;;9.33;;
10467;SDS011;5281;48.878;9.394;2022-12-05T08:04:58;12.10;;;8.90;;
10467;SDS011;5281;48.878;9.394;2022-12-05T08:07:25;12.60;;;8.77;;
10467;SDS011;5281;48.878;9.394;2022-12-05T08:09:51;12.57;;;9.17;;
10467;SDS011;5281;48.878;9.394;2022-12-05T08:12:20;14.07;;;8.97;;
10467;SDS011;5281;48.878;9.394;2022-12-05T08:14:47;12.00;;;8.50;;
10467;SDS011;5281;48.878;9.394;2022-12-05T08:17:14;12.33;;;8.60;;
10467;SDS011;5281;48.878;9.394;2022-12-05T08:19:42;12.13;;;8.60;;
10467;SDS011;5281;48.878;9.394;2022-12-05T08:22:09;12.40;;;8.80;;
10467;SDS011;5281;48.878;9.394;2022-12-05T08:24:36;12.33;;;7.97;;
10467;SDS011;5281;48.878;9.394;2022-12-05T08:27:03;13.13;;;8.63;;
10467;SDS011;5281;48.878;9.394;2022-12-05T08:29:31;12.60;;;8.53;;
10467;SDS011;5281;48.878;9.394;2022-12-05T08:31:58;11.93;;;8.33;;
10467;SDS011;5281;48.878;9.394;2022-12-05T08:34:25;17.30;;;8.67;;
10467;SDS011;5281;48.878;9.394;2022-12-05T08:36:52;12.37;;;8.50;;
10467;SDS011;5281;48.878;9.394;2022-12-05T08:39:19;13.93;;;8.73;;
10467;SDS011;5281;48.878;9.394;2022-12-05T08:41:46;13.10;;;8.97;;
10467;SDS011;5281;48.878;9.394;2022-12-05T08:44:13;13.53;;;8.90;;
10467;SDS011;5281;48.878;9.394;2022-12-05T08:46:42;14.60;;;9.37;;
10467;SDS011;5281;48.878;9.394;2022-12-05T08:49:11;13.60;;;8.97;;
10467;SDS011;5281;48.878;9.394;2022-12-05T08:51:38;13.63;;;8.50;;
10467;SDS011;5281;48.878;9.394;2022-12-05T08:54:06;13.33;;;8.40;;
10467;SDS011;5281;48.878;9.394;2022-12-05T08:56:33;11.57;;;7.50;;
10467;SDS011;5281;48.878;9.394;2022-12-05T08:59:02;11.20;;;7.80;;
10467;SDS011;5281;48.878;9.394;2022-12-05T09:01:29;13.27;;;8.13;;
10467;SDS011;5281;48.878;9.394;2022-12-05T09:03:58;10.80;;;7.37;;
10467;SDS011;5281;48.878;9.394;2022-12-05T09:06:26;10.47;;;7.60;;
10467;SDS011;5281;48.878;9.394;2022-12-05T09:08:54;15.57;;;8.17;;
10467;SDS011;5281;48.878;9.394;2022-12-05T09:11:23;12.43;;;7.30;;
10467;SDS011;5281;48.878;9.394;2022-12-05T09:13:52;12.73;;;7.27;;
10467;SDS011;5281;48.878;9.394;2022-12-05T09:16:21;9.37;;;6.67;;
10467;SDS011;5281;48.878;9.394;2022-12-05T09:18:50;7.87;;;6.13;;
10467;SDS011;5281;48.878;9.394;2022-12-05T09:21:20;8.47;;;6.43;;
10467;SDS011;5281;48.878;9.394;2022-12-05T09:23:48;9.00;;;6.60;;
10467;SDS011;5281;48.878;9.394;2022-12-05T09:26:16;7.47;;;6.00;;
10467;SDS011;5281;48.878;9.394;2022-12-05T09:28:45;8.10;;;6.67;;
10467;SDS011;5281;48.878;9.394;2022-12-05T09:31:13;9.77;;;6.83;;
10467;SDS011;5281;48.878;9.394;2022-12-05T09:33:41;8.60;;;6.00;;
10467;SDS011;5281;48.878;9.394;2022-12-05T09:36:10;8.30;;;6.43;;
10467;SDS011;5281;48.878;9.394;2022-12-05T09:38:40;8.97;;;6.17;;
10467;SDS011;5281;48.878;9.394;2022-12-05T09:41:10;9.20;;;6.50;;
10467;SDS011;5281;48.878;9.394;2022-12-05T09:44:12;8.70;;;6.30;;
10467;SDS011;5281;48.878;9.394;2022-12-05T09:46:48;7.33;;;5.80;;
10467;SDS011;5281;48.878;9.394;2022-12-05T09:49:20;8.17;;;6.23;;
10467;SDS011;5281;48.878;9.394;2022-12-05T09:51:49;8.57;;;6.50;;
10467;SDS011;5281;48.878;9.394;2022-12-05T09:54:18;8.23;;;6.00;;
10467;SDS011;5281;48.878;9.394;2022-12-05T09:56:47;7.27;;;5.87;;
10467;SDS011;5281;48.878;9.394;2022-12-05T09:59:15;18.80;;;12.30;;
10467;SDS011;5281;48.878;9.394;2022-12-05T10:01:45;8.67;;;6.77;;
10467;SDS011;5281;48.878;9.394;2022-12-05T10:04:25;10.13;;;6.90;;
10467;SDS011;5281;48.878;9.394;2022-12-05T10:07:09;9.00;;;6.13;;
10467;SDS011;5281;48.878;9.394;2022-12-05T10:09:47;9.23;;;6.93;;
10467;SDS011;5281;48.878;9.394;2022-12-05T10:12:23;7.57;;;5.60;;
10467;SDS011;5281;48.878;9.394;2022-12-05T10:15:07;6.67;;;5.30;;
10467;SDS011;5281;48.878;9.394;2022-12-05T10:17:40;10.57;;;6.23;;
10467;SDS011;5281;48.878;9.394;2022-12-05T10:20:11;7.77;;;5.93;;
10467;SDS011;5281;48.878;9.394;2022-12-05T10:22:42;7.30;;;5.23;;
10467;SDS011;5281;48.878;9.394;2022-12-05T10:25:16;8.33;;;4.93;;
10467;SDS011;5281;48.878;9.394;2022-12-05T10:27:46;10.63;;;5.57;;
10467;SDS011;5281;48.878;9.394;2022-12-05T10:30:17;10.60;;;5.73;;
10467;SDS011;5281;48.878;9.394;2022-12-05T10:32:48;7.50;;;5.43;;
10467;SDS011;5281;48.878;9.394;2022-12-05T10:35:19;6.93;;;5.30;;
10467;SDS011;5281;48.878;9.394;2022-12-05T10:37:47;6.47;;;4.90;;
10467;SDS011;5281;48.878;9.394;2022-12-05T10:40:18;8.20;;;5.43;;
10467;SDS011;5281;48.878;9.394;2022-12-05T10:42:45;8.17;;;6.77;;
10467;SDS011;5281;48.878;9.394;2022-12-05T10:45:14;7.77;;;5.57;;
10467;SDS011;5281;48.878;9.394;2022-12-05T10:47:44;5.70;;;4.90;;
10467;SDS011;5281;48.878;9.394;2022-12-05T10:52:58;7.13;;;4.90;;
10467;SDS011;5281;48.878;9.394;2022-12-05T10:55:30;6.83;;;5.57;;
10467;SDS011;5281;48.878;9.394;2022-12-05T10:58:08;9.10;;;6.30;;
10467;SDS011;5281;48.878;9.394;2022-12-05T11:00:36;8.37;;;6.23;;
10467;SDS011;5281;48.878;9.394;2022-12-05T11:03:15;6.60;;;5.70;;
10467;SDS011;5281;48.878;9.394;2022-12-05T11:05:50;8.80;;;6.67;;
10467;SDS011;5281;48.878;9.394;2022-12-05T11:08:21;9.00;;;6.40;;
10467;SDS011;5281;48.878;9.394;2022-12-05T11:10:56;8.70;;;6.07;;
10467;SDS011;5281;48.878;9.394;2022-12-05T11:13:27;9.70;;;6.57;;
10467;SDS011;5281;48.878;9.394;2022-12-05T11:15:55;8.10;;;6.73;;
10467;SDS011;5281;48.878;9.394;2022-12-05T11:18:25;8.13;;;6.40;;
10467;SDS011;5281;48.878;9.394;2022-12-05T11:20:55;8.70;;;6.33;;
10467;SDS011;5281;48.878;9.394;2022-12-05T11:23:25;8.73;;;6.93;;
10467;SDS011;5281;48.878;9.394;2022-12-05T11:25:55;8.70;;;6.30;;
10467;SDS011;5281;48.878;9.394;2022-12-05T11:28:26;10.27;;;7.60;;
10467;SDS011;5281;48.878;9.394;2022-12-05T11:30:56;9.43;;;6.97;;
10467;SDS011;5281;48.878;9.394;2022-12-05T11:33:25;9.33;;;7.13;;
10467;SDS011;5281;48.878;9.394;2022-12-05T11:35:53;10.93;;;7.37;;
10467;SDS011;5281;48.878;9.394;2022-12-05T11:38:25;10.60;;;7.50;;
10467;SDS011;5281;48.878;9.394;2022-12-05T11:40:59;11.20;;;8.00;;
10467;SDS011;5281;48.878;9.394;2022-12-05T11:43:41;9.30;;;7.03;;
10467;SDS011;5281;48.878;9.394;2022-12-05T11:46:24;11.57;;;7.67;;
10467;SDS011;5281;48.878;9.394;2022-12-05T11:49:02;10.07;;;8.07;;
10467;SDS011;5281;48.878;9.394;2022-12-05T11:51:40;11.07;;;7.80;;
10467;SDS011;5281;48.878;9.394;2022-12-05T11:54:17;8.23;;;6.47;;
10467;SDS011;5281;48.878;9.394;2022-12-05T11:57:05;7.80;;;6.63;;
10467;SDS011;5281;48.878;9.394;2022-12-05T11:59:47;11.03;;;7.40;;
10467;SDS011;5281;48.878;9.394;2022-12-05T12:02:29;9.60;;;7.40;;
10467;SDS011;5281;48.878;9.394;2022-12-05T12:05:12;8.90;;;7.13;;
10467;SDS011;5281;48.878;9.394;2022-12-05T12:07:49;9.93;;;7.50;;
10467;SDS011;5281;48.878;9.394;2022-12-05T12:10:28;11.47;;;7.57;;
10467;SDS011;5281;48.878;9.394;2022-12-05T12:13:10;12.73;;;7.47;;
10467;SDS011;5281;48.878;9.394;2022-12-05T12:15:51;10.43;;;7.57;;
10467;SDS011;5281;48.878;9.394;2022-12-05T12:18:33;9.67;;;7.23;;
10467;SDS011;5281;48.878;9.394;2022-12-05T12:21:15;13.30;;;7.60;;
10467;SDS011;5281;48.878;9.394;2022-12-05T12:23:48;12.20;;;8.17;;
10467;SDS011;5281;48.878;9.394;2022-12-05T12:26:26;10.73;;;8.20;;
10467;SDS011;5281;48.878;9.394;2022-12-05T12:29:01;11.00;;;7.73;;
10467;SDS011;5281;48.878;9.394;2022-12-05T12:31:39;10.67;;;7.20;;
10467;SDS011;5281;48.878;9.394;2022-12-05T12:34:20;11.87;;;7.90;;
10467;SDS011;5281;48.878;9.394;2022-12-05T12:37:14;10.13;;;7.70;;
10467;SDS011;5281;48.878;9.394;2022-12-05T12:39:49;10.60;;;8.10;;
10467;SDS011;5281;48.878;9.394;2022-12-05T12:42:19;10.87;;;8.37;;
10467;SDS011;5281;48.878;9.394;2022-12-05T12:45:11;9.50;;;7.50;;
10467;SDS011;5281;48.878;9.394;2022-12-05T12:48:00;12.53;;;8.87;;
10467;SDS011;5281;48.878;9.394;2022-12-05T12:50:36;10.00;;;7.37;;
10467;SDS011;5281;48.878;9.394;2022-12-05T12:53:11;8.43;;;7.20;;
10467;SDS011;5281;48.878;9.394;2022-12-05T12:55:56;9.53;;;7.33;;
10467;SDS011;5281;48.878;9.394;2022-12-05T12:58:36;9.07;;;7.07;;
10467;SDS011;5281;48.878;9.394;2022-12-05T13:01:15;9.83;;;6.83;;
10467;SDS011;5281;48.878;9.394;2022-12-05T13:03:53;9.50;;;7.03;;
10467;SDS011;5281;48.878;9.394;2022-12-05T13:06:27;10.53;;;6.80;;
10467;SDS011;5281;48.878;9.394;2022-12-05T13:08:58;9.73;;;7.73;;
10467;SDS011;5281;48.878;9.394;2022-12-05T13:11:28;9.97;;;7.10;;
10467;SDS011;5281;48.878;9.394;2022-12-05T13:14:01;14.20;;;7.57;;
10467;SDS011;5281;48.878;9.394;2022-12-05T13:16:36;12.73;;;7.90;;
10467;SDS011;5281;48.878;9.394;2022-12-05T13:19:08;8.30;;;6.40;;
10467;SDS011;5281;48.878;9.394;2022-12-05T13:21:49;8.30;;;6.77;;
10467;SDS011;5281;48.878;9.394;2022-12-05T13:24:18;10.60;;;8.60;;
10467;SDS011;5281;48.878;9.394;2022-12-05T13:26:47;10.30;;;7.97;;
10467;SDS011;5281;48.878;9.394;2022-12-05T13:29:18;9.33;;;7.73;;
10467;SDS011;5281;48.878;9.394;2022-12-05T13:31:48;9.37;;;7.00;;
10467;SDS011;5281;48.878;9.394;2022-12-05T13:37:10;9.70;;;6.80;;
10467;SDS011;5281;48.878;9.394;2022-12-05T13:40:01;12.23;;;7.43;;
10467;SDS011;5281;48.878;9.394;2022-12-05T13:42:46;10.60;;;7.43;;
10467;SDS011;5281;48.878;9.394;2022-12-05T13:45:24;8.57;;;6.70;;
10467;SDS011;5281;48.878;9.394;2022-12-05T13:47:53;10.20;;;7.40;;
10467;SDS011;5281;48.878;9.394;2022-12-05T13:50:30;10.77;;;8.00;;
10467;SDS011;5281;48.878;9.394;2022-12-05T13:53:02;9.10;;;6.97;;
10467;SDS011;5281;48.878;9.394;2022-12-05T13:55:53;9.93;;;7.60;;
10467;SDS011;5281;48.878;9.394;2022-12-05T13:58:32;9.40;;;7.70;;
10467;SDS011;5281;48.878;9.394;2022-12-05T14:04:20;10.27;;;7.60;;
10467;SDS011;5281;48.878;9.394;2022-12-05T14:07:03;12.17;;;7.63;;
10467;SDS011;5281;48.878;9.394;2022-12-05T14:09:47;9.67;;;7.93;;
10467;SDS011;5281;48.878;9.394;2022-12-05T14:15:27;13.33;;;7.90;;
10467;SDS011;5281;48.878;9.394;2022-12-05T14:17:58;8.53;;;6.93;;
10467;SDS011;5281;48.878;9.394;2022-12-05T14:20:30;10.23;;;8.07;;
10467;SDS011;5281;48.878;9.394;2022-12-05T14:23:13;10.53;;;8.17;;
10467;SDS011;5281;48.878;9.394;2022-12-05T14:25:56;9.97;;;7.50;;
10467;SDS011;5281;48.878;9.394;2022-12-05T14:28:37;9.90;;;7.37;;
10467;SDS011;5281;48.878;9.394;2022-12-05T14:31:21;10.93;;;8.10;;
10467;SDS011;5281;48.878;9.394;2022-12-05T14:34:04;9.73;;;7.40;;
10467;SDS011;5281;48.878;9.394;2022-12-05T14:36:55;11.50;;;8.50;;
10467;SDS011;5281;48.878;9.394;2022-12-05T14:39:30;10.93;;;7.67;;
10467;SDS011;5281;48.878;9.394;2022-12-05T14:42:01;10.30;;;8.43;;
10467;SDS011;5281;48.878;9.394;2022-12-05T14:44:30;11.53;;;8.00;;
10467;SDS011;5281;48.878;9.394;2022-12-05T14:46:58;9.90;;;7.73;;
10467;SDS011;5281;48.878;9.394;2022-12-05T14:49:33;11.43;;;8.53;;
10467;SDS011;5281;48.878;9.394;2022-12-05T14:52:19;11.03;;;7.93;;
10467;SDS011;5281;48.878;9.394;2022-12-05T14:54:47;11.20;;;7.87;;
10467;SDS011;5281;48.878;9.394;2022-12-05T14:57:16;12.27;;;7.93;;
10467;SDS011;5281;48.878;9.394;2022-12-05T14:59:45;11.37;;;8.77;;
10467;SDS011;5281;48.878;9.394;2022-12-05T15:02:19;12.43;;;9.07;;
10467;SDS011;5281;48.878;9.394;2022-12-05T15:04:51;11.33;;;8.50;;
10467;SDS011;5281;48.878;9.394;2022-12-05T15:07:25;11.33;;;8.17;;
10467;SDS011;5281;48.878;9.394;2022-12-05T15:09:56;13.80;;;9.87;;
10467;SDS011;5281;48.878;9.394;2022-12-05T15:12:27;10.73;;;8.60;;
10467;SDS011;5281;48.878;9.394;2022-12-05T15:15:02;11.23;;;8.60;;
10467;SDS011;5281;48.878;9.394;2022-12-05T15:17:36;13.53;;;8.97;;
10467;SDS011;5281;48.878;9.394;2022-12-05T15:20:05;11.13;;;8.73;;
10467;SDS011;5281;48.878;9.394;2022-12-05T15:22:40;12.40;;;8.93;;
10467;SDS011;5281;48.878;9.394;2022-12-05T15:27:58;11.90;;;8.30;;
10467;SDS011;5281;48.878;9.394;2022-12-05T15:30:27;11.77;;;8.83;;